createdAt,value
2022-09-14T00:01:26.136Z,100.00
2022-09-14T00:04:17.281Z,100.00
2022-09-14T00:06:44.187Z,100.00
2022-09-14T00:09:19.850Z,100.00
2022-09-14T00:11:46.806Z,100.00
2022-09-14T00:14:14.255Z,100.00
2022-09-14T00:16:42.812Z,100.00
2022-09-14T00:19:19.410Z,100.00
2022-09-14T00:21:49.823Z,100.00
2022-09-14T00:24:16.545Z,100.00
2022-09-14T00:26:43.353Z,100.00
2022-09-14T00:29:10.988Z,100.00
2022-09-14T00:31:39.609Z,100.00
2022-09-14T00:34:08.522Z,100.00
2022-09-14T00:36:44.918Z,100.00
2022-09-14T00:39:12.343Z,100.00
2022-09-14T00:41:41.927Z,100.00
2022-09-14T00:44:11.394Z,100.00
2022-09-14T00:46:51.431Z,100.00
2022-09-14T00:49:21.974Z,100.00
2022-09-14T00:51:54.934Z,100.00
2022-09-14T00:54:21.801Z,100.00
2022-09-14T00:56:49.742Z,100.00
2022-09-14T00:59:23.498Z,100.00
2022-09-14T01:01:50.991Z,100.00
2022-09-14T01:04:17.802Z,100.00
2022-09-14T01:07:06.612Z,100.00
2022-09-14T01:09:58.243Z,100.00
2022-09-14T01:13:03.125Z,100.00
2022-09-14T01:15:38.623Z,100.00
2022-09-14T01:18:14.361Z,100.00
2022-09-14T01:21:10.754Z,100.00
2022-09-14T01:24:06.649Z,100.00
2022-09-14T01:27:01.162Z,100.00
2022-09-14T01:29:30.997Z,100.00
2022-09-14T01:32:19.072Z,100.00
2022-09-14T01:35:15.684Z,100.00
2022-09-14T01:37:50.850Z,100.00
2022-09-14T01:40:30.606Z,100.00
2022-09-14T01:43:09.141Z,100.00
2022-09-14T01:45:38.475Z,100.00
2022-09-14T01:48:08.922Z,100.00
2022-09-14T01:50:41.031Z,100.00
2022-09-14T01:53:34.877Z,100.00
2022-09-14T01:56:15.325Z,100.00
2022-09-14T01:59:11.470Z,100.00
2022-09-14T02:01:46.384Z,100.00
2022-09-14T02:04:26.870Z,100.00
2022-09-14T02:06:53.838Z,100.00
2022-09-14T02:09:26.750Z,100.00
2022-09-14T02:11:55.805Z,100.00
2022-09-14T02:14:23.183Z,100.00
2022-09-14T02:16:49.994Z,100.00
2022-09-14T02:19:20.530Z,100.00
2022-09-14T02:21:50.547Z,100.00
2022-09-14T02:24:18.122Z,100.00
2022-09-14T02:26:45.862Z,100.00
2022-09-14T02:29:12.629Z,100.00
2022-09-14T02:31:53.940Z,100.00
2022-09-14T02:34:57.939Z,100.00
2022-09-14T02:37:59.224Z,100.00
2022-09-14T02:40:33.149Z,100.00
2022-09-14T02:43:18.425Z,100.00
2022-09-14T02:46:03.696Z,100.00
2022-09-14T02:48:39.212Z,100.00
2022-09-14T02:51:14.628Z,100.00
2022-09-14T02:54:03.152Z,100.00
2022-09-14T02:56:30.233Z,100.00
2022-09-14T02:58:57.170Z,100.00
2022-09-14T03:01:24.707Z,100.00
2022-09-14T03:03:51.687Z,100.00
2022-09-14T03:06:18.586Z,100.00
2022-09-14T03:08:46.560Z,100.00
2022-09-14T03:11:13.412Z,100.00
2022-09-14T03:13:40.473Z,100.00
2022-09-14T03:16:10.471Z,100.00
2022-09-14T03:18:37.943Z,100.00
2022-09-14T03:21:06.493Z,100.00
2022-09-14T03:23:38.519Z,100.00
2022-09-14T03:26:10.682Z,100.00
2022-09-14T03:28:37.802Z,100.00
2022-09-14T03:31:06.933Z,100.00
2022-09-14T03:33:34.033Z,100.00
2022-09-14T03:36:01.302Z,100.00
2022-09-14T03:38:30.172Z,100.00
2022-09-14T03:40:59.995Z,100.00
2022-09-14T03:43:27.083Z,100.00
2022-09-14T03:45:53.874Z,100.00
2022-09-14T03:48:20.652Z,100.00
2022-09-14T03:50:47.340Z,100.00
2022-09-14T03:53:14.090Z,100.00
2022-09-14T03:55:41.792Z,100.00
2022-09-14T03:58:08.633Z,100.00
2022-09-14T04:00:36.284Z,100.00
2022-09-14T04:03:03.774Z,100.00
2022-09-14T04:05:30.667Z,100.00
2022-09-14T04:07:57.490Z,100.00
2022-09-14T04:10:24.180Z,100.00
2022-09-14T04:12:50.988Z,100.00
2022-09-14T04:15:18.411Z,100.00
2022-09-14T04:17:45.298Z,100.00
2022-09-14T04:20:12.297Z,100.00
2022-09-14T04:22:39.189Z,100.00
2022-09-14T04:25:06.358Z,100.00
2022-09-14T04:27:33.458Z,100.00
2022-09-14T04:30:00.195Z,100.00
2022-09-14T04:32:32.094Z,100.00
2022-09-14T04:35:00.917Z,100.00
2022-09-14T04:37:31.235Z,100.00
2022-09-14T04:39:58.039Z,100.00
2022-09-14T04:42:24.864Z,100.00
2022-09-14T04:44:51.594Z,100.00
2022-09-14T04:47:18.308Z,100.00
2022-09-14T04:49:45.010Z,100.00
2022-09-14T04:52:12.022Z,100.00
2022-09-14T04:54:38.779Z,100.00
2022-09-14T04:57:05.621Z,100.00
2022-09-14T04:59:32.450Z,100.00
2022-09-14T05:01:59.287Z,100.00
2022-09-14T05:04:26.096Z,100.00
2022-09-14T05:06:52.842Z,100.00
2022-09-14T05:09:20.400Z,100.00
2022-09-14T05:11:49.600Z,100.00
2022-09-14T05:14:16.354Z,100.00
2022-09-14T05:16:44.573Z,100.00
2022-09-14T05:19:14.600Z,100.00
2022-09-14T05:21:41.640Z,100.00
2022-09-14T05:24:16.281Z,100.00
2022-09-14T05:26:44.093Z,100.00
2022-09-14T05:29:16.536Z,100.00
2022-09-14T05:31:43.771Z,100.00
2022-09-14T05:34:11.333Z,100.00
2022-09-14T05:36:39.111Z,100.00
2022-09-14T05:39:07.079Z,100.00
2022-09-14T05:41:33.852Z,100.00
2022-09-14T05:44:00.646Z,100.00
2022-09-14T05:46:27.750Z,100.00
2022-09-14T05:48:54.566Z,100.00
2022-09-14T05:51:23.806Z,100.00
2022-09-14T05:53:52.586Z,100.00
2022-09-14T05:56:21.176Z,100.00
2022-09-14T05:58:48.878Z,100.00
2022-09-14T06:01:23.862Z,100.00
2022-09-14T06:03:54.319Z,100.00
2022-09-14T06:06:21.871Z,100.00
2022-09-14T06:08:54.143Z,100.00
2022-09-14T06:11:26.886Z,100.00
2022-09-14T06:13:55.140Z,100.00
2022-09-14T06:16:23.918Z,100.00
2022-09-14T06:18:51.160Z,100.00
2022-09-14T06:21:19.851Z,100.00
2022-09-14T06:23:48.016Z,100.00
2022-09-14T06:26:16.115Z,100.00
2022-09-14T06:28:43.381Z,100.00
2022-09-14T06:31:13.161Z,100.00
2022-09-14T06:33:44.562Z,100.00
2022-09-14T06:36:14.990Z,100.00
2022-09-14T06:38:42.714Z,100.00
2022-09-14T06:41:12.244Z,100.00
2022-09-14T06:43:41.301Z,100.00
2022-09-14T06:46:13.459Z,100.00
2022-09-14T06:48:50.435Z,100.00
2022-09-14T06:51:19.158Z,100.00
2022-09-14T06:53:47.302Z,100.00
2022-09-14T06:56:15.378Z,100.00
2022-09-14T06:58:42.635Z,100.00
2022-09-14T07:01:15.171Z,100.00
2022-09-14T07:03:47.104Z,100.00
2022-09-14T07:06:20.963Z,98.85
2022-09-14T07:08:48.867Z,98.65
2022-09-14T07:11:17.652Z,99.42
2022-09-14T07:13:45.236Z,97.44
2022-09-14T07:16:13.033Z,96.87
2022-09-14T07:18:40.806Z,96.79
2022-09-14T07:21:10.893Z,96.32
2022-09-14T07:23:40.255Z,95.38
2022-09-14T07:26:08.770Z,94.77
2022-09-14T07:28:36.910Z,95.35
2022-09-14T07:31:05.165Z,93.54
2022-09-14T07:33:32.689Z,90.66
2022-09-14T07:36:10.568Z,90.80
2022-09-14T07:38:53.585Z,81.52
2022-09-14T07:41:21.905Z,79.25
2022-09-14T07:43:54.518Z,81.50
2022-09-14T07:46:21.994Z,79.71
2022-09-14T07:48:54.445Z,78.81
2022-09-14T07:51:21.483Z,78.95
2022-09-14T07:53:48.375Z,77.50
2022-09-14T07:56:16.916Z,77.25
2022-09-14T07:58:44.923Z,77.30
2022-09-14T08:01:20.057Z,75.54
2022-09-14T08:03:48.322Z,75.24
2022-09-14T08:06:20.588Z,73.79
2022-09-14T08:08:50.432Z,73.78
2022-09-14T08:11:30.107Z,71.82
2022-09-14T08:14:04.737Z,70.71
2022-09-14T08:16:34.552Z,69.79
2022-09-14T08:19:05.058Z,68.29
2022-09-14T08:21:32.846Z,68.66
2022-09-14T08:24:02.432Z,68.12
2022-09-14T08:26:30.140Z,66.44
2022-09-14T08:28:57.745Z,66.34
2022-09-14T08:31:26.561Z,66.39
2022-09-14T08:34:01.501Z,63.33
2022-09-14T08:36:40.380Z,62.31
2022-09-14T08:39:10.328Z,61.25
2022-09-14T08:41:46.183Z,60.12
2022-09-14T08:44:24.676Z,61.55
2022-09-14T08:47:07.732Z,61.06
2022-09-14T08:50:02.601Z,59.74
2022-09-14T08:52:47.315Z,60.43
2022-09-14T08:55:25.542Z,59.56
2022-09-14T08:57:57.888Z,59.58
2022-09-14T09:00:32.342Z,58.87
2022-09-14T09:03:21.084Z,58.63
2022-09-14T09:06:15.124Z,58.73
2022-09-14T09:09:02.843Z,58.72
2022-09-14T09:11:37.425Z,57.35
2022-09-14T09:14:18.693Z,58.17
2022-09-14T09:16:49.768Z,56.63
2022-09-14T09:19:31.669Z,57.96
2022-09-14T09:22:00.255Z,57.41
2022-09-14T09:24:37.805Z,57.04
2022-09-14T09:27:16.001Z,56.31
2022-09-14T09:29:43.345Z,54.64
2022-09-14T09:32:18.033Z,55.20
2022-09-14T09:35:08.044Z,54.44
2022-09-14T09:38:20.073Z,54.82
2022-09-14T09:40:56.880Z,52.60
2022-09-14T09:43:38.880Z,51.00
2022-09-14T09:46:12.557Z,49.29
2022-09-14T09:48:41.856Z,48.91
2022-09-14T09:51:15.232Z,49.70
2022-09-14T09:53:54.145Z,49.60
2022-09-14T09:56:26.699Z,49.44
2022-09-14T09:58:53.786Z,48.06
2022-09-14T10:01:35.895Z,47.27
2022-09-14T10:04:04.882Z,46.88
2022-09-14T10:06:32.664Z,47.00
2022-09-14T10:08:59.951Z,47.84
2022-09-14T10:11:45.271Z,47.66
2022-09-14T10:14:29.185Z,46.15
2022-09-14T10:17:06.095Z,46.55
2022-09-14T10:19:33.667Z,45.52
2022-09-14T10:22:17.513Z,45.55
2022-09-14T10:24:57.888Z,45.32
2022-09-14T10:27:49.140Z,44.22
2022-09-14T10:30:19.128Z,44.66
2022-09-14T10:33:02.462Z,41.79
2022-09-14T10:35:56.021Z,41.97
2022-09-14T10:38:39.096Z,42.49
2022-09-14T10:41:26.045Z,41.65
2022-09-14T10:44:23.940Z,40.24
2022-09-14T10:47:12.122Z,40.91
2022-09-14T10:50:11.536Z,40.53
2022-09-14T10:52:44.051Z,38.18
2022-09-14T10:55:34.380Z,39.67
2022-09-14T10:58:21.194Z,38.58
2022-09-14T11:01:27.002Z,37.86
2022-09-14T11:04:19.084Z,38.24
2022-09-14T11:07:12.691Z,38.33
2022-09-14T11:10:13.033Z,37.79
2022-09-14T11:13:05.949Z,37.46
2022-09-14T11:15:38.357Z,36.91
2022-09-14T11:18:21.352Z,36.36
2022-09-14T11:21:20.413Z,36.33
2022-09-14T11:23:57.214Z,35.51
2022-09-14T11:26:31.679Z,36.66
2022-09-14T11:29:16.975Z,36.32
2022-09-14T11:32:16.866Z,34.39
2022-09-14T11:34:48.182Z,33.88
2022-09-14T11:37:19.835Z,33.05
2022-09-14T11:40:01.864Z,31.54
2022-09-14T11:42:35.754Z,31.93
2022-09-14T11:45:07.991Z,31.76
2022-09-14T11:47:41.236Z,30.10
2022-09-14T11:50:17.654Z,29.18
2022-09-14T11:52:44.563Z,28.05
2022-09-14T11:55:17.426Z,28.99
2022-09-14T11:57:46.553Z,27.04
2022-09-14T12:00:23.837Z,28.50
2022-09-14T12:03:18.739Z,28.82
2022-09-14T12:05:47.013Z,29.13
2022-09-14T12:08:38.497Z,26.81
2022-09-14T12:11:08.054Z,26.48
2022-09-14T12:13:36.624Z,27.07
2022-09-14T12:16:14.806Z,26.36
2022-09-14T12:18:45.432Z,26.96
2022-09-14T12:21:17.910Z,27.58
2022-09-14T12:23:51.929Z,26.69
2022-09-14T12:26:18.731Z,25.69
2022-09-14T12:28:48.705Z,24.80
2022-09-14T12:31:37.439Z,25.44
2022-09-14T12:34:30.433Z,25.89
2022-09-14T12:37:00.275Z,26.16
2022-09-14T12:39:35.758Z,26.62
2022-09-14T12:42:27.343Z,26.75
2022-09-14T12:44:54.620Z,25.86
2022-09-14T12:47:26.997Z,24.63
2022-09-14T12:49:58.719Z,24.78
2022-09-14T12:52:48.733Z,25.69
2022-09-14T12:55:33.840Z,26.05
2022-09-14T12:58:33.070Z,25.02
2022-09-14T13:01:24.754Z,25.54
2022-09-14T13:03:57.088Z,26.19
2022-09-14T13:06:30.677Z,25.17
2022-09-14T13:08:58.828Z,25.08
2022-09-14T13:11:37.262Z,25.02
2022-09-14T13:14:04.541Z,25.79
2022-09-14T13:16:44.368Z,25.85
2022-09-14T13:19:20.099Z,25.79
2022-09-14T13:21:49.801Z,24.93
2022-09-14T13:24:24.720Z,24.88
2022-09-14T13:26:52.934Z,24.68
2022-09-14T13:29:19.711Z,24.35
2022-09-14T13:31:47.030Z,24.34
2022-09-14T13:34:35.783Z,24.90
2022-09-14T13:37:04.270Z,24.52
2022-09-14T13:39:35.027Z,25.21
2022-09-14T13:42:02.858Z,25.04
2022-09-14T13:44:34.964Z,24.50
2022-09-14T13:47:05.670Z,24.70
2022-09-14T13:49:34.707Z,24.28
2022-09-14T13:52:20.149Z,24.01
2022-09-14T13:54:47.362Z,24.59
2022-09-14T13:57:20.326Z,24.09
2022-09-14T14:00:16.948Z,24.13
2022-09-14T14:02:50.301Z,24.29
2022-09-14T14:05:21.514Z,24.64
2022-09-14T14:07:48.365Z,23.58
2022-09-14T14:10:25.221Z,23.87
2022-09-14T14:12:52.369Z,24.02
2022-09-14T14:15:19.045Z,24.40
2022-09-14T14:17:45.868Z,24.83
2022-09-14T14:20:32.965Z,23.84
2022-09-14T14:23:08.637Z,23.74
2022-09-14T14:25:45.717Z,24.30
2022-09-14T14:28:27.431Z,24.27
2022-09-14T14:30:58.307Z,23.90
2022-09-14T14:33:25.784Z,23.81
2022-09-14T14:35:54.649Z,24.36
2022-09-14T14:38:23.470Z,24.60
2022-09-14T14:40:52.417Z,24.45
2022-09-14T14:43:21.592Z,24.00
2022-09-14T14:45:50.097Z,23.93
2022-09-14T14:48:18.503Z,23.88
2022-09-14T14:50:46.682Z,24.22
2022-09-14T14:53:13.567Z,23.41
2022-09-14T14:55:41.025Z,23.52
2022-09-14T14:58:14.051Z,23.56
2022-09-14T15:00:41.168Z,23.46
2022-09-14T15:03:07.914Z,23.25
2022-09-14T15:05:34.849Z,22.94
2022-09-14T15:08:01.692Z,23.25
2022-09-14T15:10:29.392Z,22.45
2022-09-14T15:12:56.235Z,22.11
2022-09-14T15:15:25.469Z,21.65
2022-09-14T15:17:53.437Z,21.63
2022-09-14T15:20:20.964Z,22.18
2022-09-14T15:22:48.976Z,22.29
2022-09-14T15:25:18.195Z,22.83
2022-09-14T15:27:45.522Z,22.78
2022-09-14T15:30:13.696Z,23.49
2022-09-14T15:32:41.089Z,24.39
2022-09-14T15:35:10.879Z,25.36
2022-09-14T15:37:37.713Z,25.23
2022-09-14T15:40:05.128Z,24.82
2022-09-14T15:42:31.988Z,24.47
2022-09-14T15:44:58.759Z,24.37
2022-09-14T15:47:25.564Z,24.71
2022-09-14T15:49:55.091Z,24.75
2022-09-14T15:52:21.886Z,24.80
2022-09-14T15:54:49.685Z,24.97
2022-09-14T15:57:16.561Z,25.39
2022-09-14T15:59:43.274Z,25.83
2022-09-14T16:02:12.395Z,25.90
2022-09-14T16:04:39.557Z,26.07
2022-09-14T16:07:11.036Z,26.71
2022-09-14T16:09:41.722Z,26.70
2022-09-14T16:12:13.584Z,27.81
2022-09-14T16:14:40.570Z,29.17
2022-09-14T16:17:09.302Z,29.46
2022-09-14T16:19:36.031Z,30.36
2022-09-14T16:22:03.656Z,32.89
2022-09-14T16:24:31.422Z,33.45
2022-09-14T16:26:58.594Z,34.08
2022-09-14T16:29:26.521Z,34.79
2022-09-14T16:31:54.300Z,34.78
2022-09-14T16:34:27.304Z,35.46
2022-09-14T16:36:55.541Z,36.76
2022-09-14T16:39:25.130Z,37.93
2022-09-14T16:41:54.235Z,38.42
2022-09-14T16:44:26.006Z,38.84
2022-09-14T16:46:54.502Z,40.23
2022-09-14T16:49:27.255Z,41.25
2022-09-14T16:51:55.669Z,41.94
2022-09-14T16:54:24.356Z,43.57
2022-09-14T16:56:51.462Z,43.66
2022-09-14T16:59:20.551Z,43.56
2022-09-14T17:01:52.043Z,43.94
2022-09-14T17:04:22.194Z,45.01
2022-09-14T17:06:50.622Z,46.17
2022-09-14T17:09:28.454Z,48.96
2022-09-14T17:11:56.697Z,50.88
2022-09-14T17:14:29.495Z,51.29
2022-09-14T17:16:56.889Z,50.81
2022-09-14T17:19:23.711Z,49.98
2022-09-14T17:21:51.054Z,50.49
2022-09-14T17:24:19.061Z,50.74
2022-09-14T17:26:46.806Z,50.66
2022-09-14T17:29:14.096Z,52.07
2022-09-14T17:31:42.698Z,52.84
2022-09-14T17:34:12.243Z,52.26
2022-09-14T17:36:39.049Z,52.16
2022-09-14T17:39:11.657Z,52.99
2022-09-14T17:41:40.235Z,54.59
2022-09-14T17:44:08.230Z,55.44
2022-09-14T17:46:37.370Z,55.59
2022-09-14T17:49:08.617Z,55.95
2022-09-14T17:51:37.262Z,56.71
2022-09-14T17:54:04.351Z,57.28
2022-09-14T17:56:31.503Z,57.62
2022-09-14T17:59:04.717Z,57.71
2022-09-14T18:01:32.683Z,57.96
2022-09-14T18:04:02.345Z,59.69
2022-09-14T18:06:38.436Z,60.91
2022-09-14T18:09:11.648Z,60.16
2022-09-14T18:11:38.691Z,60.78
2022-09-14T18:14:06.096Z,60.49
2022-09-14T18:16:33.983Z,61.27
2022-09-14T18:19:01.011Z,61.98
2022-09-14T18:21:27.760Z,60.60
2022-09-14T18:23:55.172Z,60.42
2022-09-14T18:26:23.560Z,60.26
2022-09-14T18:28:53.570Z,60.56
2022-09-14T18:31:20.524Z,62.30
2022-09-14T18:33:52.513Z,62.97
2022-09-14T18:36:20.181Z,63.39
2022-09-14T18:38:48.636Z,63.45
2022-09-14T18:41:17.731Z,63.28
2022-09-14T18:43:46.460Z,65.09
2022-09-14T18:46:14.848Z,63.05
2022-09-14T18:48:44.071Z,62.70
2022-09-14T18:51:12.279Z,62.11
2022-09-14T18:53:39.034Z,64.75
2022-09-14T18:56:17.233Z,64.65
2022-09-14T18:58:46.534Z,65.32
2022-09-14T19:01:14.911Z,67.05
2022-09-14T19:03:42.925Z,67.72
2022-09-14T19:06:14.952Z,67.40
2022-09-14T19:08:42.737Z,68.74
2022-09-14T19:11:18.807Z,68.63
2022-09-14T19:13:47.016Z,69.90
2022-09-14T19:16:20.083Z,70.56
2022-09-14T19:18:48.571Z,70.47
2022-09-14T19:21:18.900Z,70.71
2022-09-14T19:23:47.533Z,71.28
2022-09-14T19:26:18.273Z,72.00
2022-09-14T19:28:45.689Z,72.45
2022-09-14T19:31:14.958Z,73.18
2022-09-14T19:33:45.446Z,72.97
2022-09-14T19:36:15.922Z,73.08
2022-09-14T19:38:43.053Z,73.73
2022-09-14T19:41:09.853Z,73.55
2022-09-14T19:43:36.693Z,74.18
2022-09-14T19:46:11.991Z,74.15
2022-09-14T19:48:39.806Z,73.61
2022-09-14T19:51:09.298Z,72.63
2022-09-14T19:53:37.114Z,72.69
2022-09-14T19:56:09.043Z,72.89
2022-09-14T19:58:37.227Z,72.82
2022-09-14T20:01:04.948Z,73.24
2022-09-14T20:03:32.613Z,72.48
2022-09-14T20:06:08.269Z,71.96
2022-09-14T20:08:35.936Z,72.92
2022-09-14T20:11:13.298Z,73.76
2022-09-14T20:13:41.633Z,73.64
2022-09-14T20:16:19.173Z,73.48
2022-09-14T20:18:47.644Z,74.34
2022-09-14T20:21:20.217Z,72.62
2022-09-14T20:24:11.423Z,71.91
2022-09-14T20:26:33.957Z,71.65
2022-09-14T20:29:01.342Z,72.37
2022-09-14T20:31:29.693Z,73.26
2022-09-14T20:33:57.446Z,73.46
2022-09-14T20:36:25.352Z,75.12
2022-09-14T20:38:54.521Z,76.05
2022-09-14T20:41:23.422Z,76.70
2022-09-14T20:43:50.909Z,78.92
2022-09-14T20:46:23.394Z,80.24
2022-09-14T20:48:50.772Z,80.52
2022-09-14T20:51:20.026Z,81.59
2022-09-14T20:54:07.059Z,81.80
2022-09-14T20:56:35.783Z,82.87
2022-09-14T20:59:13.439Z,83.32
2022-09-14T21:01:42.411Z,84.22
2022-09-14T21:04:12.070Z,85.14
2022-09-14T21:06:41.433Z,87.14
2022-09-14T21:09:09.501Z,87.39
2022-09-14T21:11:36.751Z,87.90
2022-09-14T21:14:04.345Z,88.64
2022-09-14T21:16:42.991Z,88.63
2022-09-14T21:19:12.771Z,89.59
2022-09-14T21:21:39.975Z,90.77
2022-09-14T21:24:09.682Z,92.62
2022-09-14T21:26:41.826Z,93.11
2022-09-14T21:29:14.243Z,94.18
2022-09-14T21:31:41.698Z,94.41
2022-09-14T21:34:11.085Z,95.76
2022-09-14T21:36:42.171Z,96.72
2022-09-14T21:39:12.606Z,96.79
2022-09-14T21:41:40.757Z,97.40
2022-09-14T21:44:08.531Z,96.35
2022-09-14T21:46:35.730Z,96.25
2022-09-14T21:49:02.502Z,96.23
2022-09-14T21:51:35.022Z,95.84
2022-09-14T21:54:13.578Z,95.26
2022-09-14T21:56:43.185Z,95.00
2022-09-14T21:59:12.935Z,95.07
2022-09-14T22:01:39.998Z,95.25
2022-09-14T22:04:08.060Z,95.78
2022-09-14T22:06:35.696Z,96.57
2022-09-14T22:09:03.007Z,96.33
2022-09-14T22:11:34.962Z,95.94
2022-09-14T22:14:07.641Z,95.19
2022-09-14T22:16:36.858Z,95.22
2022-09-14T22:19:12.399Z,94.32
2022-09-14T22:21:39.727Z,93.72
2022-09-14T22:24:14.054Z,94.25
2022-09-14T22:26:42.383Z,94.11
2022-09-14T22:29:10.530Z,93.88
2022-09-14T22:31:40.003Z,93.59
2022-09-14T22:34:07.627Z,93.55
2022-09-14T22:36:34.828Z,93.80
2022-09-14T22:39:01.894Z,93.74
2022-09-14T22:41:29.398Z,94.07
2022-09-14T22:43:56.756Z,93.57
2022-09-14T22:46:24.515Z,94.22
2022-09-14T22:48:52.419Z,94.09
2022-09-14T22:51:23.168Z,94.07
2022-09-14T22:53:50.564Z,95.32
2022-09-14T22:56:29.769Z,95.54
2022-09-14T22:58:57.425Z,95.51
2022-09-14T23:01:30.397Z,96.59
2022-09-14T23:04:00.139Z,96.99
2022-09-14T23:06:32.672Z,98.23
2022-09-14T23:09:02.898Z,98.64
2022-09-14T23:11:30.325Z,98.96
2022-09-14T23:13:58.991Z,99.29
2022-09-14T23:16:27.966Z,100.00
2022-09-14T23:19:02.557Z,100.00
2022-09-14T23:21:31.110Z,99.84
2022-09-14T23:24:06.642Z,100.00
2022-09-14T23:26:34.420Z,100.00
2022-09-14T23:29:06.994Z,100.00
2022-09-14T23:31:34.245Z,100.00
2022-09-14T23:34:04.483Z,100.00
2022-09-14T23:36:31.693Z,100.00
2022-09-14T23:38:58.403Z,100.00
2022-09-14T23:41:26.568Z,100.00
2022-09-14T23:43:54.094Z,100.00
2022-09-14T23:46:21.959Z,100.00
2022-09-14T23:48:49.065Z,100.00
2022-09-14T23:51:16.074Z,100.00
2022-09-14T23:53:43.263Z,100.00
2022-09-14T23:56:10.908Z,100.00
2022-09-14T23:58:38.303Z,100.00
